Latest Weather Observations for Bendigo

IDV60801

Issued at 3:03 pm EDT Saturday 21 January 2017 (issued every 30 minutes, with the page automatically refreshed every 10 minutes)

About weather observations | Map of weather stations | Latest weather observations for VIC | Other Formats
Station Details ID: 081123 Name: BENDIGO AIRPORT Lat: -36.74 Lon: 144.33 Height: 208.0 m
Data from the previous 72 hours. | See also: Recent months at Bendigo
Date/Time
EDT
Temp
°C
App
Temp
°C
Dew
Point
°C
Rel
Hum
%
Delta-T
°C
Wind Press
QNH
hPa
Press
MSL
hPa
Rain since
9am
mm
Dir  Spd
km/h
Gust
km/h
Spd
kts
Gust
kts
21/03:00pm 25.0 21.0 8.1 34 9.1 S 19 28 10 15 1013.5 1012.7 0.0
21/02:30pm 24.1 21.0 8.9 38 8.3 SSE 15 32 8 17 1013.7 1012.9 0.0
21/02:00pm 23.4 19.1 7.9 37 8.2 SSE 20 32 11 17 1013.8 1013.0 0.0
21/01:30pm 22.8 18.6 8.1 39 7.8 SSE 20 35 11 19 1014.0 1013.2 0.0
21/01:00pm 22.0 18.0 8.2 41 7.3 SSE 19 32 10 17 1014.5 1013.7 0.0
21/12:30pm 21.2 17.2 8.1 43 6.9 S 19 32 10 17 1014.6 1013.8 0.0
21/12:00pm 20.2 15.5 7.6 44 6.5 SSE 22 30 12 16 1014.9 1014.1 0.0
21/11:30am 20.0 16.9 9.0 49 5.9 S 15 32 8 17 1015.0 1014.2 0.0
21/11:00am 18.3 14.7 8.3 52 5.2 SSW 17 26 9 14 1015.0 1014.2 0.0
21/10:30am 17.9 14.0 8.5 54 4.9 S 19 24 10 13 1014.9 1014.1 0.0
21/10:00am 17.2 13.2 8.1 55 4.7 S 19 26 10 14 1014.7 1013.9 0.0
21/09:30am 16.5 12.3 8.2 58 4.3 SSE 20 30 11 16 1014.6 1013.8 0.0
21/09:00am 15.4 10.3 7.7 60 3.9 SSE 24 32 13 17 1014.4 1013.6 0.0
21/08:30am 14.7 10.4 7.7 63 3.5 S 20 33 11 18 1014.1 1013.3 0.0
21/08:00am 13.9 11.7 7.7 66 3.1 S 9 19 5 10 1013.7 1012.9 0.0
21/07:30am 12.3 11.7 7.4 72 2.4 CALM 0 2 0 1 1013.3 1012.4 0.0
21/07:00am 11.0 10.0 7.5 79 1.7 WNW 2 7 1 4 1013.0 1012.1 0.0
21/06:30am 10.1 8.3 7.3 83 1.3 SW 6 9 3 5 1012.4 1011.5 0.0
21/06:00am 10.7 9.7 7.4 80 1.6 SW 2 6 1 3 1012.2 1011.3 0.0
21/05:30am 10.3 8.4 7.4 82 1.4 SSW 7 9 4 5 1011.9 1011.0 0.0
21/05:00am 10.8 8.6 7.7 81 1.5 SW 9 13 5 7 1011.4 1010.6 0.0
21/04:30am 11.1 8.2 8.0 81 1.5 SW 13 15 7 8 1011.3 1010.5 0.0
21/04:00am 11.2 8.3 8.1 81 1.5 SW 13 17 7 9 1011.0 1010.2 0.0
21/03:30am 11.4 9.3 8.3 81 1.5 SW 9 13 5 7 1011.0 1010.2 0.0
21/03:00am 11.2 9.1 8.2 82 1.5 WSW 9 11 5 6 1010.8 1010.0 0.0
21/02:30am 11.4 9.7 8.4 82 1.5 SW 7 11 4 6 1010.7 1009.9 0.0
21/02:00am 11.9 11.6 8.7 81 1.6 CALM 0 0 0 0 1010.5 1009.7 0.0
21/01:30am 12.3 11.9 8.4 77 2.0 CALM 0 0 0 0 1010.3 1009.5 0.0
21/01:00am 12.5 10.9 8.6 77 2.0 SSW 7 9 4 5 1010.0 1009.2 0.0
21/12:30am 13.1 11.0 8.4 73 2.4 SSW 9 15 5 8 1009.8 1009.0 0.0
21/12:00am 13.5 11.4 8.4 71 2.6 SSW 9 11 5 6 1009.4 1008.6 0.0
 
Date/Time
EDT
Temp
°C
App
Temp
°C
Dew
Point
°C
Rel
Hum
%
Delta-T
°C
Wind Press
QNH
hPa
Press
MSL
hPa
Rain since
9am
mm
Dir  Spd
km/h
Gust
km/h
Spd
kts
Gust
kts
20/11:30pm 13.7 11.9 8.1 69 2.8 SSW 7 13 4 7 1009.1 1008.2 0.0
20/11:00pm 14.2 12.7 8.4 68 2.9 SW 6 13 3 7 1008.8 1007.9 0.0
20/10:30pm 14.7 12.2 8.0 64 3.4 SSW 11 20 6 11 1008.7 1007.8 0.0
20/10:00pm 15.1 12.1 7.9 62 3.6 SSW 13 20 7 11 1008.4 1007.5 0.0
20/09:30pm 15.6 11.3 7.9 60 3.9 S 20 32 11 17 1008.0 1007.1 0.0
20/09:00pm 16.5 13.6 8.2 58 4.3 S 13 24 7 13 1007.4 1006.5 0.0
20/08:30pm 17.4 13.3 8.8 57 4.5 SSW 20 35 11 19 1006.9 1006.0 0.0
20/08:00pm 18.3 13.9 8.8 54 5.0 SSW 22 39 12 21 1005.8 1005.0 0.0
20/07:30pm 19.4 15.0 9.0 51 5.5 SSW 22 33 12 18 1005.2 1004.4 0.0
20/07:00pm 20.1 14.2 9.1 49 5.9 S 30 43 16 23 1004.7 1003.8 0.0
20/06:30pm 20.3 14.8 9.2 49 5.9 SW 28 44 15 24 1003.9 1003.0 0.0
20/06:09pm 21.1 15.8 9.7 48 6.2 SSW 28 46 15 25 1003.6 1002.7 0.0
20/06:00pm 20.7 15.7 9.6 49 6.0 SSW 26 39 14 21 1003.5 1002.6 0.0
20/05:30pm 21.1 15.5 10.3 50 5.9 SSW 30 48 16 26 1002.9 1002.0 0.0
20/05:00pm 20.4 15.1 9.9 51 5.7 SSW 28 41 15 22 1002.7 1001.8 0.0
20/04:37pm 21.1 15.6 10.6 51 5.8 SSW 30 48 16 26 1002.4 1001.5 0.0
20/04:30pm 20.6 15.4 10.4 52 5.6 SW 28 43 15 23 1002.4 1001.5 0.0
20/04:00pm 20.2 15.0 10.3 53 5.4 SSW 28 46 15 25 1002.3 1001.4 0.0
20/03:30pm 20.3 14.7 10.1 52 5.5 SSW 30 48 16 26 1002.3 1001.4 0.0
20/03:27pm 19.3 13.7 10.3 56 4.9 SSW 30 48 16 26 1002.3 1001.4 0.0
20/03:00pm 19.6 15.0 11.1 58 4.7 SSW 26 39 14 21 1001.9 1001.0 0.0
20/02:31pm 19.6 13.9 11.1 58 4.7 SSW 32 50 17 27 1001.6 1000.8 0.0
20/02:30pm 19.7 14.0 11.2 58 4.7 SSW 32 46 17 25 1001.6 1000.8 0.0
20/02:01pm 19.7 14.7 12.2 62 4.2 SW 30 48 16 26 1001.3 1000.5 0.0
20/02:00pm 19.6 15.0 12.4 63 4.1 SW 28 39 15 21 1001.4 1000.6 0.0
20/01:30pm 19.0 13.9 11.8 63 4.0 SSW 30 52 16 28 1001.0 1000.2 0.0
20/01:21pm 19.8 14.3 12.6 63 4.1 SW 33 50 18 27 1000.8 1000.0 0.0
20/01:10pm 20.0 14.5 12.3 61 4.4 SW 33 59 18 32 1000.6 999.7 0.0
20/01:00pm 20.1 15.2 13.6 66 3.8 SSW 32 57 17 31 1000.3 999.4 0.0
20/12:30pm 19.3 13.4 13.7 70 3.2 SW 37 57 20 31 1000.0 999.1 0.0
20/12:00pm 19.5 15.0 13.9 70 3.3 SW 30 48 16 26 999.4 998.5 0.0
20/11:42am 19.9 16.3 15.3 75 2.7 SW 28 46 15 25 998.8 997.9 0.0
20/11:30am 20.1 16.7 15.7 76 2.6 SW 28 41 15 22 998.6 997.7 0.0
20/11:16am 19.7 17.3 16.3 81 2.1 SW 24 35 13 19 998.4 997.5 0.0
20/11:00am 18.2 16.2 16.4 89 1.1 SW 22 46 12 25 998.1 997.2 0.0
20/10:55am 18.1 16.5 16.4 90 1.0 SW 20 46 11 25 998.2 997.3 0.0
20/10:30am 18.5 17.2 17.3 93 0.7 WSW 20 30 11 16 997.6 996.7 0.0
20/10:00am 17.7 17.7 17.1 96 0.4 WNW 13 19 7 10 997.4 996.5 0.0
20/09:54am 17.7 17.7 17.1 96 0.4 WNW 13 19 7 10 997.4 996.5 0.0
20/09:30am 17.4 17.6 16.8 96 0.4 NW 11 17 6 9 997.2 996.3 0.0
20/09:00am 17.0 17.4 16.4 96 0.4 WNW 9 13 5 7 997.3 996.4 22.6
20/08:30am 16.6 17.3 16.0 96 0.4 W 7 11 4 6 996.9 996.0 22.2
20/08:00am 16.3 15.7 15.7 96 0.4 N 13 17 7 9 995.8 994.9 21.4
20/07:33am 16.2 16.0 15.6 96 0.4 NNE 11 20 6 11 995.2 994.3 19.8
20/07:30am 16.3 15.7 15.7 96 0.4 NE 13 22 7 12 995.1 994.2 19.4
20/07:00am 15.8 15.4 15.2 96 0.4 NE 11 17 6 9 995.4 994.5 19.4
20/06:39am 15.6 15.2 15.1 97 0.3 ENE 11 17 6 9 995.7 994.8 19.4
20/06:30am 15.5 15.0 15.0 97 0.3 E 11 17 6 9 995.9 995.0 19.2
20/06:21am 15.4 14.9 14.8 96 0.3 ENE 11 15 6 8 995.9 995.0 19.2
20/06:00am 15.3 14.7 14.7 96 0.3 ESE 11 19 6 10 996.5 995.6 18.2
20/05:30am 15.4 15.2 14.6 95 0.5 SSW 9 15 5 8 998.1 997.2 13.4
20/05:08am 15.6 13.3 14.6 94 0.6 SW 20 35 11 19 998.5 997.6 9.2
20/05:00am 15.3 12.8 14.2 93 0.6 SSE 20 32 11 17 996.5 995.6 8.4
20/04:30am 15.3 13.4 14.3 94 0.6 SE 17 24 9 13 996.3 995.4 8.2
20/04:00am 15.2 12.7 14.2 94 0.6 SE 20 28 11 15 997.1 996.2 8.2
20/03:30am 15.1 12.3 14.3 95 0.5 SSE 22 32 12 17 998.0 997.1 8.2
20/03:00am 15.5 13.1 14.5 94 0.6 SE 20 26 11 14 999.6 998.7 7.8
20/02:39am 15.8 14.4 14.5 92 0.7 S 15 20 8 11 1000.8 1000.0 7.2
20/02:30am 15.8 14.0 14.5 92 0.7 SSW 17 26 9 14 1001.1 1000.3 7.2
20/02:28am 15.9 14.2 14.6 92 0.8 SSW 17 26 9 14 1001.4 1000.6 7.0
20/02:02am 19.9 14.7 11.7 59 4.6 W 30 57 16 31 1003.5 1002.6 2.4
20/02:01am 22.1 17.5 9.6 45 6.8 WSW 24 52 13 28 1003.0 1002.1 0.8
20/02:00am 22.7 18.2 8.4 40 7.7 WSW 22 37 12 20 1002.5 1001.6 0.4
20/01:57am 24.3 20.6 6.1 31 9.4 SSW 15 37 8 20 1001.2 1000.4 0.0
20/01:55am 24.3 21.0 4.6 28 9.9 S 11 24 6 13 999.2 998.3 0.0
20/01:30am 23.9 19.8 4.3 28 9.8 ENE 15 19 8 10 996.8 995.9 0.0
20/01:00am 21.6 20.6 5.5 35 8.2 CALM 0 4 0 2 998.2 997.3 0.0
20/12:30am 20.9 20.0 6.1 38 7.5 CALM 0 0 0 0 999.1 998.2 0.0
20/12:00am 21.0 19.2 5.4 36 7.9 ENE 4 7 2 4 999.0 998.1 0.0
 
Date/Time
EDT
Temp
°C
App
Temp
°C
Dew
Point
°C
Rel
Hum
%
Delta-T
°C
Wind Press
QNH
hPa
Press
MSL
hPa
Rain since
9am
mm
Dir  Spd
km/h
Gust
km/h
Spd
kts
Gust
kts
19/11:30pm 22.8 21.0 5.3 32 8.8 ENE 4 9 2 5 999.7 998.8 0.0
19/11:00pm 24.4 21.8 4.2 27 10.2 ENE 7 11 4 6 1000.0 999.1 0.0
19/10:30pm 25.2 22.4 3.2 24 10.9 ENE 7 13 4 7 1000.5 999.6 0.0
19/10:00pm 25.8 23.2 3.1 23 11.3 ENE 6 9 3 5 1001.4 1000.6 0.0
19/09:30pm 25.9 24.1 3.2 23 11.3 ESE 2 7 1 4 1002.2 1001.3 0.0
19/09:00pm 27.1 25.6 2.9 21 12.1 CALM 0 0 0 0 1002.8 1001.9 0.0
19/08:30pm 28.0 26.4 2.2 19 12.7 CALM 0 0 0 0 1002.7 1001.8 0.0
19/08:00pm 28.8 26.8 -0.4 15 13.9 CALM 0 0 0 0 1003.2 1002.3 0.0
19/07:30pm 29.3 27.3 0.0 15 14.1 CALM 0 6 0 3 1003.6 1002.7 0.0
19/07:00pm 29.8 27.2 -1.5 13 14.7 NW 2 7 1 4 1004.0 1003.1 0.0
19/06:30pm 30.0 27.4 -1.4 13 14.8 NW 2 7 1 4 1004.2 1003.3 0.0
19/06:00pm 30.1 27.6 -1.3 13 14.9 NW 2 7 1 4 1004.6 1003.7 0.0
19/05:30pm 30.9 27.5 -1.8 12 15.4 SW 6 9 3 5 1005.1 1004.3 0.0
19/05:00pm 30.0 26.3 -4.9 10 15.5 N 6 13 3 7 1005.7 1004.9 0.0
19/04:30pm 30.2 25.9 -4.8 10 15.5 NNE 9 15 5 8 1006.1 1005.3 0.0
19/04:00pm 30.8 26.3 -3.0 11 15.6 NNW 11 19 6 10 1007.0 1006.1 0.0
19/03:30pm 29.6 25.4 -3.9 11 15.0 NW 9 19 5 10 1007.5 1006.6 0.0
19/03:00pm 28.5 24.1 -2.6 13 14.2 NW 11 19 6 10 1007.9 1007.0 0.0
19/02:30pm 28.0 24.5 -1.0 15 13.5 NNW 7 11 4 6 1008.3 1007.4 0.0
19/02:00pm 27.2 23.0 -0.8 16 13.1 ESE 11 20 6 11 1008.8 1007.9 0.0
19/01:30pm 27.5 24.2 0.3 17 13.0 WSW 7 19 4 10 1009.7 1008.9 0.0
19/01:00pm 25.9 22.6 -0.2 18 12.2 WNW 7 17 4 9 1010.2 1009.4 0.0
19/12:30pm 25.2 21.3 1.3 21 11.4 SW 11 17 6 9 1010.8 1010.0 0.0
19/12:00pm 24.7 22.1 3.4 25 10.5 SE 6 13 3 7 1011.1 1010.3 0.0
19/11:30am 22.9 20.0 4.4 30 9.2 SSE 9 19 5 10 1011.3 1010.5 0.0
19/11:00am 21.9 18.0 3.6 30 8.9 SE 13 20 7 11 1011.5 1010.7 0.0
19/10:30am 20.5 16.3 3.7 33 8.1 SE 15 22 8 12 1011.9 1011.0 0.0
19/10:00am 18.9 14.6 5.4 41 6.7 SE 17 24 9 13 1012.3 1011.4 0.0
19/09:30am 17.5 13.5 5.1 44 6.0 SE 15 20 8 11 1012.6 1011.7 0.0
19/09:00am 16.0 11.7 5.3 49 5.2 SE 17 26 9 14 1012.7 1011.8 0.0
19/08:30am 14.5 9.4 6.1 57 4.1 SE 22 35 12 19 1012.5 1011.6 0.0
19/08:00am 13.3 8.6 6.2 62 3.4 SE 20 28 11 15 1012.4 1011.5 0.0
19/07:30am 12.1 7.9 5.9 66 2.9 SSE 17 26 9 14 1012.3 1011.4 0.0
19/07:00am 11.0 6.9 6.0 71 2.4 SSE 17 24 9 13 1012.1 1011.2 0.0
19/06:30am 10.6 6.8 5.8 72 2.2 S 15 20 8 11 1012.3 1011.4 0.0
19/06:00am 10.3 6.4 5.5 72 2.2 S 15 22 8 12 1012.2 1011.3 0.0
19/05:30am 10.2 7.1 5.6 73 2.1 S 11 15 6 8 1012.1 1011.2 0.0
19/05:00am 10.2 7.5 5.8 74 2.1 S 9 15 5 8 1012.2 1011.3 0.0
19/04:30am 10.5 7.9 5.9 73 2.2 S 9 13 5 7 1012.3 1011.4 0.0
19/04:00am 10.8 8.2 6.0 72 2.3 S 9 17 5 9 1012.5 1011.6 0.0
19/03:30am 11.3 7.2 6.0 70 2.5 SSE 17 24 9 13 1012.4 1011.5 0.0
19/03:00am 11.5 7.7 6.0 69 2.6 S 15 24 8 13 1012.5 1011.6 0.0
19/02:30am 11.8 8.0 5.7 66 2.9 S 15 26 8 14 1013.1 1012.2 0.0
19/02:00am 12.0 8.4 5.2 63 3.2 S 13 19 7 10 1013.4 1012.5 0.0
19/01:30am 12.3 8.9 5.9 65 3.0 S 13 20 7 11 1013.8 1013.0 0.0
19/01:00am 12.4 9.0 6.0 65 3.0 SSE 13 24 7 13 1014.2 1013.4 0.0
19/12:30am 12.9 8.4 6.3 64 3.2 S 19 26 10 14 1014.2 1013.4 0.0
19/12:00am 13.2 8.6 6.3 63 3.3 SSE 20 26 11 14 1014.5 1013.7 0.0
 
Date/Time
EDT
Temp
°C
App
Temp
°C
Dew
Point
°C
Rel
Hum
%
Delta-T
°C
Wind Press
QNH
hPa
Press
MSL
hPa
Rain since
9am
mm
Dir  Spd
km/h
Gust
km/h
Spd
kts
Gust
kts
18/11:30pm 13.7 8.3 6.3 61 3.6 SSE 24 32 13 17 1014.9 1014.1 0.0
18/11:00pm 14.2 8.7 6.1 58 3.9 SSE 24 32 13 17 1014.8 1014.0 0.0
18/10:30pm 14.6 9.9 5.9 56 4.2 SSE 20 32 11 17 1015.1 1014.3 0.0
18/10:00pm 15.1 10.5 5.6 53 4.6 SSE 19 28 10 15 1015.0 1014.2 0.0
18/09:30pm 15.9 10.3 5.5 50 5.0 SSE 24 35 13 19 1014.9 1014.1 0.0
18/09:00pm 16.8 11.1 5.1 46 5.6 SSE 24 35 13 19 1014.7 1013.9 0.0
18/08:30pm 17.9 11.6 5.5 44 6.1 SSE 28 37 15 20 1014.2 1013.4 0.0
18/08:00pm 19.3 13.0 5.7 41 6.8 SSE 28 44 15 24 1013.8 1013.0 0.0
18/07:30pm 20.7 14.2 6.3 39 7.3 SSE 30 41 16 22 1013.3 1012.4 0.0
18/07:00pm 21.7 15.4 5.6 35 8.1 SSE 28 43 15 23 1012.9 1012.0 0.0
18/06:30pm 22.6 16.1 6.4 35 8.3 SSE 30 44 16 24 1012.7 1011.8 0.0
18/06:00pm 23.9 17.5 7.1 34 8.8 SE 30 43 16 23 1012.4 1011.5 0.0
18/05:30pm 25.0 19.7 6.7 31 9.6 SSE 24 37 13 20 1012.4 1011.5 0.0
18/05:00pm 25.4 19.3 6.6 30 9.9 SE 28 43 15 23 1012.3 1011.4 0.0
18/04:30pm 25.9 21.3 6.5 29 10.2 SE 20 35 11 19 1012.0 1011.1 0.0
18/04:00pm 25.9 21.5 6.5 29 10.2 SE 19 24 10 13 1012.2 1011.3 0.0
18/03:30pm 25.5 21.8 6.2 29 10.1 ESE 15 28 8 15 1012.2 1011.3 0.0

Other Formats:

Comma delimited format used in spreadsheet applications
http://www.bom.gov.au/fwo/IDV60801/IDV60801.94855.axf

JavaScript Object Notation format (JSON) in row-major order
http://www.bom.gov.au/fwo/IDV60801/IDV60801.94855.json